createdAt,value
2023-03-27T00:02:23.588Z,1.30
2023-03-27T00:04:51.149Z,1.30
2023-03-27T00:07:20.099Z,1.30
2023-03-27T00:09:47.353Z,1.30
2023-03-27T00:12:14.541Z,1.30
2023-03-27T00:14:41.730Z,1.30
2023-03-27T00:17:09.411Z,1.30
2023-03-27T00:19:36.713Z,1.30
2023-03-27T00:22:03.959Z,1.30
2023-03-27T00:24:31.471Z,1.30
2023-03-27T00:26:58.718Z,1.20
2023-03-27T00:29:25.954Z,1.20
2023-03-27T00:31:53.205Z,1.20
2023-03-27T00:34:20.650Z,1.30
2023-03-27T00:36:51.278Z,1.30
2023-03-27T00:39:19.409Z,1.30
2023-03-27T00:41:47.422Z,1.30
2023-03-27T00:44:24.291Z,1.30
2023-03-27T00:46:54.837Z,1.30
2023-03-27T00:49:23.729Z,1.40
2023-03-27T00:51:53.140Z,1.30
2023-03-27T00:54:30.124Z,1.40
2023-03-27T00:57:02.096Z,1.40
2023-03-27T00:59:33.021Z,1.40
2023-03-27T01:02:02.623Z,1.50
2023-03-27T01:04:31.605Z,1.50
2023-03-27T01:07:00.302Z,1.50
2023-03-27T01:09:27.978Z,1.60
2023-03-27T01:11:55.927Z,1.60
2023-03-27T01:14:43.283Z,1.60
2023-03-27T01:17:29.539Z,1.60
2023-03-27T01:20:24.985Z,1.60
2023-03-27T01:23:11.432Z,1.60
2023-03-27T01:25:58.138Z,1.50
2023-03-27T01:28:54.992Z,1.40
2023-03-27T01:31:53.106Z,1.40
2023-03-27T01:34:23.254Z,1.30
2023-03-27T01:37:10.024Z,1.30
2023-03-27T01:39:56.351Z,1.30
2023-03-27T01:42:32.910Z,1.30
2023-03-27T01:45:17.985Z,1.30
2023-03-27T01:47:51.604Z,1.30
2023-03-27T01:50:31.111Z,1.30
2023-03-27T01:53:31.063Z,1.30
2023-03-27T01:56:11.116Z,1.40
2023-03-27T01:58:46.467Z,1.40
2023-03-27T02:01:18.336Z,1.40
2023-03-27T02:03:49.057Z,1.30
2023-03-27T02:06:25.330Z,1.30
2023-03-27T02:09:13.247Z,1.20
2023-03-27T02:11:52.889Z,1.20
2023-03-27T02:14:34.795Z,1.10
2023-03-27T02:17:10.275Z,1.10
2023-03-27T02:20:09.618Z,1.10
2023-03-27T02:22:40.309Z,1.00
2023-03-27T02:25:28.244Z,1.00
2023-03-27T02:28:05.261Z,0.90
2023-03-27T02:31:05.521Z,0.90
2023-03-27T02:34:02.394Z,0.80
2023-03-27T02:36:51.435Z,0.80
2023-03-27T02:39:33.944Z,0.80
2023-03-27T02:42:23.853Z,0.70
2023-03-27T02:45:13.187Z,0.70
2023-03-27T02:47:48.841Z,0.70
2023-03-27T02:50:25.599Z,0.70
2023-03-27T02:53:02.351Z,0.70
2023-03-27T02:55:34.524Z,0.70
2023-03-27T02:58:09.264Z,0.70
2023-03-27T03:00:49.048Z,0.70
2023-03-27T03:04:18.216Z,0.70
2023-03-27T03:07:06.627Z,0.70
2023-03-27T03:09:34.883Z,0.70
2023-03-27T03:12:09.004Z,0.70
2023-03-27T03:14:44.340Z,0.80
2023-03-27T03:17:12.907Z,0.80
2023-03-27T03:19:40.130Z,0.80
2023-03-27T03:22:08.479Z,0.80
2023-03-27T03:24:37.623Z,0.80
2023-03-27T03:27:05.945Z,0.80
2023-03-27T03:29:44.373Z,0.80
2023-03-27T03:32:20.885Z,0.80
2023-03-27T03:34:51.263Z,0.80
2023-03-27T03:37:20.070Z,0.80
2023-03-27T03:39:47.231Z,0.80
2023-03-27T03:42:22.650Z,0.70
2023-03-27T03:44:52.571Z,0.70
2023-03-27T03:47:22.059Z,0.70
2023-03-27T03:49:49.977Z,0.70
2023-03-27T03:52:17.298Z,0.80
2023-03-27T03:54:46.682Z,0.80
2023-03-27T03:57:14.583Z,0.80
2023-03-27T03:59:44.063Z,0.80
2023-03-27T04:02:31.715Z,0.90
2023-03-27T04:05:11.283Z,0.90
2023-03-27T04:07:40.585Z,0.90
2023-03-27T04:10:23.920Z,0.90
2023-03-27T04:12:51.898Z,0.90
2023-03-27T04:15:27.543Z,1.00
2023-03-27T04:18:15.143Z,0.90
2023-03-27T04:20:43.131Z,0.90
2023-03-27T04:23:14.017Z,1.00
2023-03-27T04:25:41.791Z,1.00
2023-03-27T04:28:16.511Z,1.00
2023-03-27T04:30:50.620Z,1.00
2023-03-27T04:33:46.874Z,0.90
2023-03-27T04:36:25.852Z,0.90
2023-03-27T04:39:10.562Z,0.80
2023-03-27T04:41:38.886Z,0.80
2023-03-27T04:44:07.434Z,0.80
2023-03-27T04:46:39.297Z,0.90
2023-03-27T04:49:09.926Z,0.90
2023-03-27T04:52:06.940Z,1.00
2023-03-27T04:54:35.073Z,0.90
2023-03-27T04:57:03.763Z,0.90
2023-03-27T04:59:32.198Z,0.90
2023-03-27T05:02:23.280Z,0.90
2023-03-27T05:05:17.120Z,0.90
2023-03-27T05:07:49.426Z,0.90
2023-03-27T05:10:23.102Z,0.80
2023-03-27T05:12:54.171Z,0.80
2023-03-27T05:15:23.495Z,0.70
2023-03-27T05:17:53.306Z,0.70
2023-03-27T05:20:23.960Z,0.70
2023-03-27T05:22:56.477Z,0.70
2023-03-27T05:25:31.086Z,0.70
2023-03-27T05:28:00.747Z,0.60
2023-03-27T05:30:31.884Z,0.60
2023-03-27T05:33:17.652Z,0.60
2023-03-27T05:35:48.606Z,0.60
2023-03-27T05:38:17.816Z,0.60
2023-03-27T05:41:11.846Z,0.60
2023-03-27T05:43:45.294Z,0.60
2023-03-27T05:46:13.898Z,0.60
2023-03-27T05:48:54.075Z,0.60
2023-03-27T05:51:21.976Z,0.70
2023-03-27T05:53:49.532Z,0.70
2023-03-27T05:56:22.602Z,0.70
2023-03-27T05:58:54.959Z,0.70
2023-03-27T06:01:24.223Z,0.70
2023-03-27T06:03:56.308Z,0.70
2023-03-27T06:06:41.655Z,0.60
2023-03-27T06:09:09.864Z,0.60
2023-03-27T06:11:38.271Z,0.60
2023-03-27T06:14:05.751Z,0.60
2023-03-27T06:16:53.446Z,0.60
2023-03-27T06:19:47.114Z,0.60
2023-03-27T06:22:14.617Z,0.60
2023-03-27T06:24:42.769Z,0.60
2023-03-27T06:27:13.408Z,0.60
2023-03-27T06:29:41.867Z,0.60
2023-03-27T06:32:09.791Z,0.60
2023-03-27T06:34:42.154Z,0.60
2023-03-27T06:37:40.277Z,0.60
2023-03-27T06:40:10.381Z,0.60
2023-03-27T06:42:38.926Z,0.60
2023-03-27T06:45:32.790Z,0.70
2023-03-27T06:48:29.362Z,0.70
2023-03-27T06:50:58.124Z,0.70
2023-03-27T06:53:28.177Z,0.80
2023-03-27T06:55:57.490Z,0.80
2023-03-27T06:58:27.544Z,0.80
2023-03-27T07:00:55.665Z,0.80
2023-03-27T07:03:23.210Z,0.90
2023-03-27T07:06:09.228Z,0.90
2023-03-27T07:09:02.798Z,1.00
2023-03-27T07:11:32.185Z,1.00
2023-03-27T07:14:03.783Z,1.10
2023-03-27T07:16:31.777Z,1.10
2023-03-27T07:19:02.532Z,1.10
2023-03-27T07:21:33.031Z,1.20
2023-03-27T07:24:00.671Z,1.20
2023-03-27T07:26:34.320Z,1.30
2023-03-27T07:29:06.101Z,1.30
2023-03-27T07:31:54.894Z,1.40
2023-03-27T07:34:27.272Z,1.40
2023-03-27T07:37:14.655Z,1.50
2023-03-27T07:40:02.117Z,1.50
2023-03-27T07:42:29.603Z,1.60
2023-03-27T07:45:04.004Z,1.60
2023-03-27T07:47:32.341Z,1.70
2023-03-27T07:49:59.962Z,1.70
2023-03-27T07:52:27.554Z,1.70
2023-03-27T07:55:00.922Z,1.80
2023-03-27T07:57:57.983Z,1.80
2023-03-27T08:00:29.922Z,1.80
2023-03-27T08:03:14.525Z,1.90
2023-03-27T08:05:58.559Z,1.90
2023-03-27T08:08:28.722Z,2.00
2023-03-27T08:10:59.160Z,2.00
2023-03-27T08:13:30.541Z,2.00
2023-03-27T08:16:07.191Z,2.10
2023-03-27T08:18:34.623Z,2.10
2023-03-27T08:21:03.342Z,2.20
2023-03-27T08:23:32.869Z,2.20
2023-03-27T08:26:09.642Z,2.20
2023-03-27T08:28:46.793Z,2.20
2023-03-27T08:31:16.259Z,2.30
2023-03-27T08:33:45.038Z,2.40
2023-03-27T08:36:20.240Z,2.50
2023-03-27T08:38:47.685Z,2.50
2023-03-27T08:41:39.122Z,2.60
2023-03-27T08:44:18.594Z,2.60
2023-03-27T08:46:58.192Z,2.70
2023-03-27T08:49:33.408Z,2.70
2023-03-27T08:52:27.385Z,2.70
2023-03-27T08:55:37.434Z,2.80
2023-03-27T08:58:30.872Z,2.80
2023-03-27T09:01:41.340Z,2.90
2023-03-27T09:04:20.435Z,2.90
2023-03-27T09:07:11.698Z,2.90
2023-03-27T09:10:15.496Z,3.00
2023-03-27T09:13:02.643Z,3.10
2023-03-27T09:15:47.664Z,3.10
2023-03-27T09:18:37.973Z,3.20
2023-03-27T09:21:37.984Z,3.20
2023-03-27T09:24:22.444Z,3.30
2023-03-27T09:27:34.578Z,3.40
2023-03-27T09:30:27.419Z,3.40
2023-03-27T09:33:03.991Z,3.50
2023-03-27T09:35:33.105Z,3.50
2023-03-27T09:38:04.018Z,3.60
2023-03-27T09:40:53.329Z,3.60
2023-03-27T09:43:30.132Z,3.70
2023-03-27T09:46:01.804Z,3.70
2023-03-27T09:48:28.953Z,3.70
2023-03-27T09:50:56.822Z,3.70
2023-03-27T09:53:58.501Z,3.80
2023-03-27T09:56:29.771Z,3.90
2023-03-27T09:58:57.486Z,4.00
2023-03-27T10:01:30.475Z,4.00
2023-03-27T10:04:21.278Z,4.00
2023-03-27T10:07:02.362Z,4.00
2023-03-27T10:10:25.332Z,4.00
2023-03-27T10:13:06.769Z,4.10
2023-03-27T10:15:41.274Z,4.10
2023-03-27T10:18:27.497Z,4.10
2023-03-27T10:21:33.592Z,4.20
2023-03-27T10:24:27.217Z,4.20
2023-03-27T10:27:09.350Z,4.30
2023-03-27T10:29:41.319Z,4.40
2023-03-27T10:32:14.072Z,4.40
2023-03-27T10:34:57.390Z,4.40
2023-03-27T10:37:51.899Z,4.50
2023-03-27T10:40:41.204Z,4.50
2023-03-27T10:43:20.812Z,4.50
2023-03-27T10:45:55.315Z,4.50
2023-03-27T10:48:29.304Z,4.60
2023-03-27T10:51:00.814Z,4.70
2023-03-27T10:53:56.453Z,4.70
2023-03-27T10:56:43.230Z,4.80
2023-03-27T10:59:41.162Z,4.80
2023-03-27T11:02:38.987Z,4.80
2023-03-27T11:05:15.632Z,4.80
2023-03-27T11:07:51.264Z,4.80
2023-03-27T11:10:45.539Z,4.90
2023-03-27T11:13:28.693Z,4.90
2023-03-27T11:16:07.571Z,4.90
2023-03-27T11:19:10.343Z,4.90
2023-03-27T11:22:07.999Z,5.00
2023-03-27T11:24:50.715Z,5.00
2023-03-27T11:27:30.642Z,5.10
2023-03-27T11:30:16.353Z,5.10
2023-03-27T11:33:34.220Z,5.20
2023-03-27T11:36:22.898Z,5.10
2023-03-27T11:39:43.691Z,5.20
2023-03-27T11:42:17.629Z,5.30
2023-03-27T11:44:45.794Z,5.30
2023-03-27T11:48:04.188Z,5.40
2023-03-27T11:51:06.004Z,5.50
2023-03-27T11:53:42.256Z,5.50
2023-03-27T11:56:15.158Z,5.50
2023-03-27T11:59:07.063Z,5.50
2023-03-27T12:02:02.475Z,5.50
2023-03-27T12:04:57.863Z,5.60
2023-03-27T12:07:48.263Z,5.80
2023-03-27T12:10:29.091Z,5.80
2023-03-27T12:13:28.764Z,5.80
2023-03-27T12:16:09.032Z,5.80
2023-03-27T12:19:17.361Z,5.80
2023-03-27T12:22:31.545Z,5.80
2023-03-27T12:25:15.902Z,5.90
2023-03-27T12:28:27.061Z,5.90
2023-03-27T12:31:36.921Z,6.00
2023-03-27T12:34:17.888Z,6.00
2023-03-27T12:36:48.361Z,5.90
2023-03-27T12:39:23.228Z,5.90
2023-03-27T12:41:50.799Z,5.90
2023-03-27T12:45:06.552Z,5.90
2023-03-27T12:47:33.929Z,6.00
2023-03-27T12:50:19.878Z,6.10
2023-03-27T12:52:48.653Z,6.20
2023-03-27T12:55:21.402Z,6.30
2023-03-27T12:57:58.757Z,6.30
2023-03-27T13:01:00.344Z,6.40
2023-03-27T13:04:11.518Z,6.60
2023-03-27T13:07:05.368Z,6.70
2023-03-27T13:10:32.416Z,6.80
2023-03-27T13:13:19.147Z,6.90
2023-03-27T13:15:55.558Z,7.10
2023-03-27T13:18:56.074Z,7.10
2023-03-27T13:21:38.586Z,7.10
2023-03-27T13:24:21.160Z,6.90
2023-03-27T13:27:18.769Z,6.90
2023-03-27T13:29:51.486Z,6.90
2023-03-27T13:32:38.947Z,7.00
2023-03-27T13:35:23.046Z,7.20
2023-03-27T13:37:50.744Z,7.40
2023-03-27T13:40:33.307Z,7.50
2023-03-27T13:43:22.364Z,7.40
2023-03-27T13:45:59.026Z,7.50
2023-03-27T13:48:59.431Z,7.60
2023-03-27T13:51:45.122Z,7.60
2023-03-27T13:54:35.020Z,7.70
2023-03-27T13:57:21.571Z,7.80
2023-03-27T13:59:55.523Z,8.00
2023-03-27T14:03:10.975Z,8.00
2023-03-27T14:06:04.442Z,8.00
2023-03-27T14:08:47.930Z,7.90
2023-03-27T14:11:45.886Z,7.80
2023-03-27T14:14:52.559Z,7.80
2023-03-27T14:17:35.980Z,7.80
2023-03-27T14:20:26.187Z,7.90
2023-03-27T14:23:31.522Z,7.90
2023-03-27T14:26:21.648Z,7.90
2023-03-27T14:28:55.703Z,7.90
2023-03-27T14:31:35.851Z,7.90
2023-03-27T14:34:12.386Z,7.90
2023-03-27T14:36:42.574Z,7.90
2023-03-27T14:39:27.961Z,7.90
2023-03-27T14:42:03.172Z,7.90
2023-03-27T14:44:34.013Z,7.90
2023-03-27T14:47:15.392Z,8.00
2023-03-27T14:49:49.170Z,8.00
2023-03-27T14:52:30.817Z,8.00
2023-03-27T14:55:30.002Z,8.00
2023-03-27T14:58:21.243Z,8.00
2023-03-27T15:00:58.129Z,8.00
2023-03-27T15:03:35.575Z,8.00
2023-03-27T15:06:13.930Z,8.00
2023-03-27T15:08:52.482Z,8.00
2023-03-27T15:11:38.615Z,8.00
2023-03-27T15:14:24.715Z,8.00
2023-03-27T15:17:00.393Z,8.10
2023-03-27T15:19:49.427Z,8.20
2023-03-27T15:22:30.092Z,8.20
2023-03-27T15:25:08.820Z,8.20
2023-03-27T15:27:41.627Z,8.20
2023-03-27T15:30:37.507Z,8.20
2023-03-27T15:33:07.417Z,8.20
2023-03-27T15:35:42.540Z,8.20
2023-03-27T15:38:14.429Z,8.20
2023-03-27T15:40:46.684Z,8.20
2023-03-27T15:43:14.027Z,8.10
2023-03-27T15:46:16.165Z,8.10
2023-03-27T15:48:46.168Z,8.20
2023-03-27T15:51:42.095Z,8.30
2023-03-27T15:54:33.054Z,8.30
2023-03-27T15:57:10.136Z,8.30
2023-03-27T15:59:52.158Z,8.40
2023-03-27T16:02:24.427Z,8.40
2023-03-27T16:04:57.624Z,8.50
2023-03-27T16:07:34.887Z,8.50
2023-03-27T16:10:06.804Z,8.40
2023-03-27T16:12:41.798Z,8.50
2023-03-27T16:15:34.011Z,8.50
2023-03-27T16:18:30.222Z,8.40
2023-03-27T16:21:10.045Z,8.40
2023-03-27T16:23:37.513Z,8.40
2023-03-27T16:26:07.239Z,8.30
2023-03-27T16:28:35.765Z,8.30
2023-03-27T16:31:18.783Z,8.30
2023-03-27T16:33:46.452Z,8.20
2023-03-27T16:36:19.894Z,8.20
2023-03-27T16:38:48.630Z,8.10
2023-03-27T16:41:17.933Z,8.00
2023-03-27T16:43:45.667Z,7.90
2023-03-27T16:46:23.274Z,7.90
2023-03-27T16:48:52.043Z,7.80
2023-03-27T16:51:22.150Z,7.80
2023-03-27T16:53:49.503Z,7.80
2023-03-27T16:56:17.246Z,7.80
2023-03-27T16:58:44.704Z,7.70
2023-03-27T17:01:12.034Z,7.70
2023-03-27T17:03:39.608Z,7.60
2023-03-27T17:06:09.957Z,7.50
2023-03-27T17:08:37.408Z,7.50
2023-03-27T17:11:10.148Z,7.40
2023-03-27T17:13:37.957Z,7.40
2023-03-27T17:16:07.005Z,7.30
2023-03-27T17:18:34.597Z,7.30
2023-03-27T17:21:01.808Z,7.20
2023-03-27T17:23:29.103Z,7.10
2023-03-27T17:26:00.787Z,7.10
2023-03-27T17:28:28.730Z,7.10
2023-03-27T17:31:04.425Z,7.00
2023-03-27T17:33:32.284Z,6.90
2023-03-27T17:35:59.743Z,6.80
2023-03-27T17:38:27.640Z,6.80
2023-03-27T17:40:54.810Z,6.80
2023-03-27T17:43:22.146Z,6.70
2023-03-27T17:45:50.217Z,6.70
2023-03-27T17:48:17.384Z,6.70
2023-03-27T17:50:54.791Z,6.60
2023-03-27T17:53:29.405Z,6.60
2023-03-27T17:55:59.967Z,6.50
2023-03-27T17:58:28.726Z,6.50
2023-03-27T18:00:55.995Z,6.40
2023-03-27T18:03:23.655Z,6.40
2023-03-27T18:05:51.187Z,6.30
2023-03-27T18:08:19.862Z,6.20
2023-03-27T18:10:50.589Z,6.20
2023-03-27T18:13:18.853Z,6.10
2023-03-27T18:15:46.430Z,6.10
2023-03-27T18:18:13.629Z,6.00
2023-03-27T18:20:41.068Z,6.00
2023-03-27T18:23:08.437Z,6.00
2023-03-27T18:25:35.653Z,6.00
2023-03-27T18:28:02.903Z,6.00
2023-03-27T18:30:32.136Z,5.90
2023-03-27T18:32:59.585Z,5.90
2023-03-27T18:35:26.809Z,5.80
2023-03-27T18:37:54.034Z,5.80
2023-03-27T18:40:21.270Z,5.80
2023-03-27T18:42:48.615Z,5.70
2023-03-27T18:45:17.312Z,5.70
2023-03-27T18:47:45.189Z,5.70
2023-03-27T18:50:14.416Z,5.70
2023-03-27T18:52:41.923Z,5.70
2023-03-27T18:55:11.141Z,5.60
2023-03-27T18:57:38.400Z,5.60
2023-03-27T19:00:09.286Z,5.60
2023-03-27T19:02:37.092Z,5.50
2023-03-27T19:05:05.218Z,5.50
2023-03-27T19:07:32.575Z,5.50
2023-03-27T19:09:59.985Z,5.50
2023-03-27T19:12:37.010Z,5.40
2023-03-27T19:15:37.125Z,5.40
2023-03-27T19:18:25.797Z,5.30
2023-03-27T19:21:06.098Z,5.30
2023-03-27T19:23:52.449Z,5.30
2023-03-27T19:26:22.772Z,5.20
2023-03-27T19:28:50.087Z,5.20
2023-03-27T19:31:17.766Z,5.20
2023-03-27T19:33:45.861Z,5.10
2023-03-27T19:36:13.156Z,5.10
2023-03-27T19:38:40.453Z,5.10
2023-03-27T19:41:09.435Z,5.10
2023-03-27T19:43:36.871Z,5.00
2023-03-27T19:46:15.772Z,5.00
2023-03-27T19:48:45.436Z,5.00
2023-03-27T19:51:32.991Z,4.90
2023-03-27T19:54:00.200Z,4.90
2023-03-27T19:56:27.774Z,4.90
2023-03-27T19:58:55.130Z,4.80
2023-03-27T20:01:22.571Z,4.80
2023-03-27T20:03:50.545Z,4.80
2023-03-27T20:06:19.726Z,4.80
2023-03-27T20:08:46.968Z,4.80
2023-03-27T20:11:16.353Z,4.80
2023-03-27T20:13:55.634Z,4.80
2023-03-27T20:16:26.281Z,4.70
2023-03-27T20:19:04.569Z,4.70
2023-03-27T20:21:38.077Z,4.70
2023-03-27T20:24:10.228Z,4.70
2023-03-27T20:26:42.146Z,4.70
2023-03-27T20:29:17.823Z,4.60
2023-03-27T20:31:46.266Z,4.70
2023-03-27T20:34:14.391Z,4.70
2023-03-27T20:36:43.468Z,4.60
2023-03-27T20:39:38.837Z,4.60
2023-03-27T20:42:07.780Z,4.60
2023-03-27T20:44:35.340Z,4.60
2023-03-27T20:47:11.342Z,4.50
2023-03-27T20:49:45.685Z,4.50
2023-03-27T20:52:18.766Z,4.50
2023-03-27T20:54:47.603Z,4.50
2023-03-27T20:57:16.749Z,4.50
2023-03-27T20:59:46.222Z,4.50
2023-03-27T21:02:19.461Z,4.40
2023-03-27T21:04:47.571Z,4.40
2023-03-27T21:07:16.008Z,4.40
2023-03-27T21:09:45.816Z,4.40
2023-03-27T21:12:13.117Z,4.40
2023-03-27T21:14:40.427Z,4.40
2023-03-27T21:17:07.671Z,4.30
2023-03-27T21:19:34.792Z,4.30
2023-03-27T21:22:01.920Z,4.30
2023-03-27T21:24:29.074Z,4.30
2023-03-27T21:26:56.203Z,4.30
2023-03-27T21:29:25.291Z,4.30
2023-03-27T21:31:52.768Z,4.30
2023-03-27T21:34:20.157Z,4.30
2023-03-27T21:36:47.433Z,4.20
2023-03-27T21:39:14.783Z,4.20
2023-03-27T21:41:42.342Z,4.20
2023-03-27T21:44:09.530Z,4.20
2023-03-27T21:46:36.622Z,4.20
2023-03-27T21:49:03.894Z,4.20
2023-03-27T21:51:31.132Z,4.20
2023-03-27T21:53:58.270Z,4.20
2023-03-27T21:56:25.389Z,4.10
2023-03-27T21:58:52.816Z,4.10
2023-03-27T22:01:20.091Z,4.10
2023-03-27T22:03:47.279Z,4.10
2023-03-27T22:06:14.842Z,4.10
2023-03-27T22:08:43.270Z,4.10
2023-03-27T22:11:12.364Z,4.10
2023-03-27T22:13:40.474Z,4.10
2023-03-27T22:16:12.877Z,4.10
2023-03-27T22:18:40.855Z,4.10
2023-03-27T22:21:16.766Z,4.10
2023-03-27T22:23:44.158Z,4.10
2023-03-27T22:26:11.659Z,4.00
2023-03-27T22:28:38.798Z,4.00
2023-03-27T22:31:06.419Z,4.00
2023-03-27T22:33:34.083Z,4.00
2023-03-27T22:36:01.632Z,4.00
2023-03-27T22:38:33.141Z,4.00
2023-03-27T22:41:00.450Z,4.00
2023-03-27T22:43:31.187Z,4.00
2023-03-27T22:46:08.542Z,4.00
2023-03-27T22:48:35.945Z,4.00
2023-03-27T22:51:03.323Z,3.90
2023-03-27T22:53:34.194Z,4.00
2023-03-27T22:56:03.201Z,4.00
2023-03-27T22:58:31.470Z,4.00
2023-03-27T23:00:59.443Z,4.00
2023-03-27T23:03:28.098Z,4.00
2023-03-27T23:05:56.044Z,4.00
2023-03-27T23:08:27.185Z,4.00
2023-03-27T23:11:03.088Z,4.00
2023-03-27T23:13:32.211Z,3.90
2023-03-27T23:16:00.064Z,3.90
2023-03-27T23:18:27.453Z,4.00
2023-03-27T23:21:00.542Z,4.00
2023-03-27T23:23:29.332Z,4.00
2023-03-27T23:25:57.933Z,3.90
2023-03-27T23:28:26.630Z,3.90
2023-03-27T23:31:01.555Z,3.90
2023-03-27T23:33:33.009Z,3.90
2023-03-27T23:36:06.559Z,3.90
2023-03-27T23:38:34.039Z,3.90
2023-03-27T23:41:02.192Z,3.90
2023-03-27T23:43:30.593Z,3.90
2023-03-27T23:45:59.676Z,3.90
2023-03-27T23:48:28.903Z,3.90
2023-03-27T23:50:57.059Z,3.90
2023-03-27T23:53:26.372Z,3.90
2023-03-27T23:55:54.508Z,3.90
2023-03-27T23:58:22.209Z,3.90
